Time;durP1;ratioP1;P1;durP2;ratioP2;P2;SDS_P1;SDS_P2;PMS_P1;PMS_P2;Temp;Humidity;BMP_temperature;BMP_pressure;BME280_temperature;BME280_humidity;BME280_pressure;Samples;Min_cycle;Max_cycle;Signal;HPM_P1;HPM_P2
2022/12/08 00:02:57;;;;;;;5.07;3.72;;;;;;;3.56;77.14;98547.75;5063801;28;20045;-85
2022/12/08 00:12:00;;;;;;;7.68;5.20;;;;;;;2.72;83.47;98556.34;5066952;28;20059;-85
2022/12/08 00:14:48;;;;;;;6.57;4.30;;;;;;;2.87;83.79;98554.91;5036826;28;20066;-85
2022/12/08 00:17:42;;;;;;;5.93;4.07;;;;;;;2.84;83.64;98552.41;5052742;28;20069;-85
2022/12/08 00:20:27;;;;;;;5.35;3.83;;;;;;;2.98;84.11;98551.88;5065178;28;20126;-84
2022/12/08 00:23:12;;;;;;;6.75;4.10;;;;;;;3.02;84.05;98548.25;5058126;28;20041;-84
2022/12/08 00:26:01;;;;;;;6.97;4.57;;;;;;;2.99;85.07;98565.66;5070961;28;20184;-84
2022/12/08 00:28:46;;;;;;;7.53;4.97;;;;;;;2.94;85.28;98555.47;5066788;28;20033;-85
2022/12/08 00:31:32;;;;;;;5.15;3.72;;;;;;;3.10;83.79;98558.28;5066751;28;20056;-85
2022/12/08 00:34:17;;;;;;;6.25;4.65;;;;;;;3.20;83.24;98558.75;5067822;28;20048;-84
2022/12/08 00:37:02;;;;;;;6.43;4.15;;;;;;;3.19;80.59;98552.75;5064149;28;20762;-85
2022/12/08 00:39:47;;;;;;;5.07;3.95;;;;;;;3.20;81.33;98545.78;5051580;28;20166;-83
2022/12/08 00:42:32;;;;;;;5.68;4.10;;;;;;;3.18;79.14;98550.22;5039667;28;20032;-85
2022/12/08 00:45:17;;;;;;;6.88;3.92;;;;;;;3.46;78.65;98541.25;5068650;28;20090;-84
2022/12/08 00:48:02;;;;;;;5.50;3.90;;;;;;;3.40;75.49;98551.91;5048233;28;20051;-84
2022/12/08 00:50:46;;;;;;;5.38;3.70;;;;;;;3.21;74.81;98544.91;5050202;28;20119;-85
2022/12/08 00:53:31;;;;;;;4.53;2.90;;;;;;;3.38;75.61;98543.38;5064647;28;20476;-84
2022/12/08 00:56:15;;;;;;;5.60;3.42;;;;;;;3.30;75.00;98541.06;5064803;28;20545;-83
2022/12/08 00:59:00;;;;;;;5.53;3.42;;;;;;;3.44;75.27;98541.34;5065257;28;20040;-87
2022/12/08 01:01:46;;;;;;;4.40;3.00;;;;;;;3.55;75.42;98543.47;5062966;28;20044;-84
2022/12/08 01:04:31;;;;;;;4.20;3.13;;;;;;;3.49;73.64;98548.09;5057546;28;20090;-85
2022/12/08 01:07:15;;;;;;;6.65;3.20;;;;;;;3.56;75.06;98545.16;5048949;28;20047;-84
2022/12/08 01:10:00;;;;;;;5.93;3.33;;;;;;;3.63;73.32;98542.28;5052489;28;20082;-85
2022/12/08 01:12:45;;;;;;;5.63;3.20;;;;;;;3.60;74.96;98545.88;5037600;28;20045;-84
2022/12/08 01:15:30;;;;;;;5.50;3.28;;;;;;;3.70;75.51;98543.72;5066390;28;20032;-84
2022/12/08 01:18:15;;;;;;;5.85;3.40;;;;;;;3.79;74.85;98538.13;5049771;28;20040;-84
2022/12/08 01:21:05;;;;;;;5.28;3.33;;;;;;;3.88;74.81;98544.66;5049901;28;20041;-85
2022/12/08 01:23:50;;;;;;;4.57;3.08;;;;;;;3.82;72.73;98540.59;5063521;28;20037;-84
2022/12/08 01:26:35;;;;;;;5.10;3.30;;;;;;;3.84;74.25;98543.09;5048744;28;20037;-84
2022/12/08 01:29:19;;;;;;;5.25;3.30;;;;;;;3.79;74.75;98539.88;5050367;28;20047;-85
2022/12/08 01:32:06;;;;;;;4.10;2.80;;;;;;;3.76;75.43;98540.00;5050046;28;20040;-86
2022/12/08 01:34:51;;;;;;;4.63;3.00;;;;;;;3.79;75.76;98538.13;5050721;28;20044;-84
2022/12/08 01:37:36;;;;;;;3.92;2.90;;;;;;;3.90;75.54;98529.88;5062264;28;20037;-84
2022/12/08 01:40:21;;;;;;;4.63;2.90;;;;;;;3.92;76.26;98529.78;5053153;28;20040;-84
2022/12/08 01:43:13;;;;;;;4.65;2.83;;;;;;;3.96;72.90;98527.91;5048050;28;20056;-85
2022/12/08 01:45:57;;;;;;;4.97;2.97;;;;;;;3.93;74.90;98529.72;5049417;28;20032;-85
2022/12/08 01:48:42;;;;;;;4.85;2.90;;;;;;;3.90;76.73;98522.09;5050181;28;20044;-86
2022/12/08 01:51:29;;;;;;;4.15;2.80;;;;;;;3.89;77.59;98520.41;5050954;28;20118;-84
2022/12/08 01:54:16;;;;;;;5.10;3.65;;;;;;;3.99;78.04;98520.84;5072967;28;20059;-85
2022/12/08 01:57:09;;;;;;;4.85;3.08;;;;;;;3.99;76.01;98513.06;5062280;28;20048;-85
2022/12/08 02:00:00;;;;;;;4.10;2.58;;;;;;;4.09;74.59;98518.69;5065868;28;20063;-85
2022/12/08 02:02:53;;;;;;;4.93;3.25;;;;;;;4.04;71.52;98515.44;5061738;28;20493;-84
2022/12/08 02:05:39;;;;;;;5.78;3.10;;;;;;;4.05;72.91;98505.00;5077418;28;20139;-85
2022/12/08 02:08:24;;;;;;;4.50;2.60;;;;;;;4.01;73.52;98508.66;5065338;28;20068;-84
2022/12/08 02:11:10;;;;;;;4.07;2.72;;;;;;;4.10;72.15;98509.97;5037786;28;20041;-84
2022/12/08 02:13:57;;;;;;;4.97;3.45;;;;;;;3.96;71.04;98517.53;5078635;28;20075;-86
2022/12/08 02:17:01;;;;;;;6.22;4.13;;;;;;;3.79;74.55;98517.41;5063475;28;20082;-84
2022/12/08 02:20:17;;;;;;;6.28;3.97;;;;;;;3.68;75.64;98507.50;5064215;28;20048;-83
2022/12/08 02:23:10;;;;;;;8.05;4.35;;;;;;;3.71;77.15;98501.34;5064002;28;20060;-85
2022/12/08 02:26:32;;;;;;;5.68;3.67;;;;;;;3.75;78.57;98509.81;5063305;28;20136;-84
2022/12/08 02:29:27;;;;;;;8.90;5.40;;;;;;;3.83;79.42;98499.97;5064310;28;20058;-84
2022/12/08 02:32:33;;;;;;;6.68;4.95;;;;;;;3.77;79.45;98492.47;5045948;28;20122;-85
2022/12/08 02:35:33;;;;;;;7.93;4.57;;;;;;;3.68;80.08;98493.72;5047903;28;20044;-84
2022/12/08 02:38:37;;;;;;;9.48;5.10;;;;;;;3.67;81.44;98497.22;5053932;28;20174;-85
2022/12/08 02:41:37;;;;;;;9.68;6.28;;;;;;;3.40;82.19;98492.31;5066160;28;20115;-84
2022/12/08 02:45:13;;;;;;;6.18;4.15;;;;;;;3.49;85.49;98481.59;5065452;28;20468;-84
2022/12/08 02:47:59;;;;;;;9.65;6.32;;;;;;;3.44;85.29;98470.56;4973834;28;20396;-84
2022/12/08 02:50:44;;;;;;;9.13;5.55;;;;;;;3.36;87.09;98475.25;4986422;28;20416;-84
2022/12/08 02:53:32;;;;;;;8.00;5.85;;;;;;;3.24;87.61;98474.88;4973425;28;20066;-85
2022/12/08 02:56:38;;;;;;;10.00;7.20;;;;;;;3.21;88.37;98472.41;4986155;28;20532;-85
2022/12/08 03:00:04;;;;;;;11.75;7.05;;;;;;;3.26;88.71;98473.06;4989000;28;20057;-84
2022/12/08 03:02:58;;;;;;;10.18;7.25;;;;;;;3.13;89.79;98470.16;4916796;29;20055;-83
2022/12/08 03:06:12;;;;;;;11.02;7.55;;;;;;;3.12;91.16;98465.06;4931830;29;20567;-85
2022/12/08 03:09:24;;;;;;;13.93;8.52;;;;;;;2.94;93.08;98462.31;4915610;29;20168;-86
2022/12/08 03:12:26;;;;;;;10.00;6.43;;;;;;;2.99;94.63;98464.72;4934312;29;20134;-85
2022/12/08 03:15:31;;;;;;;11.32;8.43;;;;;;;2.85;97.30;98460.13;4921228;29;20425;-84
2022/12/08 03:18:19;;;;;;;11.85;7.72;;;;;;;3.13;96.83;98454.63;4934565;29;20051;-85
2022/12/08 03:21:05;;;;;;;13.32;8.40;;;;;;;3.21;96.16;98456.88;4933789;29;20040;-85
2022/12/08 03:23:55;;;;;;;12.18;7.75;;;;;;;3.16;96.74;98456.22;4942197;28;20062;-84
2022/12/08 03:26:40;;;;;;;13.13;8.05;;;;;;;2.99;97.87;98447.44;4951488;28;20377;-85
2022/12/08 03:29:29;;;;;;;12.27;8.43;;;;;;;2.93;99.28;98445.97;4945802;29;20051;-83
2022/12/08 03:32:26;;;;;;;13.48;8.88;;;;;;;2.82;99.68;98438.63;4939801;28;20047;-85
2022/12/08 03:35:17;;;;;;;13.15;9.07;;;;;;;2.74;100.00;98448.47;4952624;28;20070;-83
2022/12/08 03:38:13;;;;;;;11.75;8.07;;;;;;;2.89;100.00;98446.16;4975203;28;20049;-85
2022/12/08 03:41:20;;;;;;;12.30;8.43;;;;;;;2.75;100.00;98444.97;5025682;28;20098;-84
2022/12/08 03:44:04;;;;;;;11.07;7.05;;;;;;;2.73;100.00;98445.94;5064354;28;20044;-84
2022/12/08 03:46:49;;;;;;;12.68;7.75;;;;;;;2.79;100.00;98448.28;5065683;28;20238;-83
2022/12/08 03:49:33;;;;;;;12.68;8.93;;;;;;;2.69;100.00;98438.28;5052138;28;20061;-84
2022/12/08 03:52:20;;;;;;;11.25;7.65;;;;;;;2.76;100.00;98440.66;5052816;28;20037;-85
2022/12/08 03:55:05;;;;;;;14.30;9.77;;;;;;;2.58;100.00;98440.47;5080487;28;20047;-82
2022/12/08 03:57:50;;;;;;;16.85;10.73;;;;;;;2.49;100.00;98439.13;5064705;28;20075;-83
2022/12/08 04:00:34;;;;;;;11.25;7.85;;;;;;;2.62;100.00;98436.03;5082209;28;20032;-82
2022/12/08 04:03:19;;;;;;;15.18;8.85;;;;;;;2.75;100.00;98434.63;5081181;28;20742;-83
2022/12/08 04:06:05;;;;;;;14.40;9.40;;;;;;;2.71;100.00;98436.50;5067735;28;20040;-85
2022/12/08 04:08:51;;;;;;;15.80;9.48;;;;;;;2.61;100.00;98439.53;5060384;28;20127;-84
2022/12/08 04:11:35;;;;;;;14.60;9.88;;;;;;;2.50;100.00;98434.81;5066864;28;20064;-84
2022/12/08 04:14:20;;;;;;;15.93;10.23;;;;;;;2.33;100.00;98446.66;5064810;28;20127;-85
2022/12/08 04:17:05;;;;;;;13.75;8.68;;;;;;;2.38;100.00;98436.97;5063438;28;20056;-83
2022/12/08 04:19:50;;;;;;;10.02;6.97;;;;;;;2.47;100.00;98438.34;5066474;28;20087;-83
2022/12/08 04:22:36;;;;;;;11.55;7.30;;;;;;;2.68;100.00;98444.38;5069640;28;20058;-83
2022/12/08 04:25:22;;;;;;;13.95;9.73;;;;;;;2.69;100.00;98432.31;5065495;28;20039;-86
2022/12/08 04:28:07;;;;;;;15.13;9.70;;;;;;;2.62;100.00;98433.44;5066280;28;20044;-83
2022/12/08 04:30:51;;;;;;;14.65;9.73;;;;;;;2.67;100.00;98431.50;5067000;28;20036;-83
2022/12/08 04:33:36;;;;;;;15.80;10.38;;;;;;;2.45;100.00;98437.56;5064987;28;20049;-83
2022/12/08 04:36:21;;;;;;;14.82;9.07;;;;;;;2.37;100.00;98429.28;5064385;28;20033;-83
2022/12/08 04:39:05;;;;;;;15.63;10.43;;;;;;;2.41;100.00;98429.09;5064463;28;20086;-84
2022/12/08 04:41:50;;;;;;;13.82;9.90;;;;;;;2.38;100.00;98420.63;5068036;28;20048;-85
2022/12/08 04:44:35;;;;;;;14.98;10.13;;;;;;;2.30;100.00;98426.09;5066135;28;20041;-86
2022/12/08 04:47:21;;;;;;;14.52;9.98;;;;;;;2.41;100.00;98421.34;5063901;28;20040;-83
2022/12/08 04:50:07;;;;;;;15.57;10.45;;;;;;;2.45;100.00;98419.44;5067965;28;20041;-83
2022/12/08 04:52:53;;;;;;;18.70;10.07;;;;;;;2.29;100.00;98419.22;5066579;28;20052;-84
2022/12/08 04:55:42;;;;;;;15.23;10.23;;;;;;;2.34;100.00;98413.00;5040452;28;20052;-84
2022/12/08 04:58:27;;;;;;;13.20;9.18;;;;;;;2.46;100.00;98410.81;5054531;28;20039;-84
2022/12/08 05:01:12;;;;;;;15.10;10.02;;;;;;;2.47;100.00;98412.47;5053645;28;20505;-84
2022/12/08 05:03:57;;;;;;;15.02;10.00;;;;;;;2.33;100.00;98408.69;5065609;28;20040;-84
2022/12/08 05:06:41;;;;;;;15.20;9.35;;;;;;;2.38;100.00;98408.53;5065378;28;20386;-84
2022/12/08 05:09:27;;;;;;;12.65;8.48;;;;;;;2.50;100.00;98414.94;5065871;28;20504;-86
2022/12/08 05:12:12;;;;;;;12.23;8.45;;;;;;;2.49;100.00;98407.25;5048060;28;20166;-83
2022/12/08 05:14:57;;;;;;;13.38;7.43;;;;;;;3.22;100.00;98405.91;5063032;28;20351;-84
2022/12/08 05:17:41;;;;;;;10.25;6.50;;;;;;;2.98;100.00;98416.44;5037095;28;20195;-81
2022/12/08 05:20:26;;;;;;;15.43;8.70;;;;;;;3.12;100.00;98414.09;5063493;28;20037;-85
2022/12/08 05:23:11;;;;;;;14.05;8.57;;;;;;;3.02;100.00;98411.06;5063930;28;20049;-84
2022/12/08 05:25:58;;;;;;;14.45;8.98;;;;;;;2.79;100.00;98407.72;5064165;28;20033;-83
2022/12/08 05:28:42;;;;;;;13.50;9.13;;;;;;;2.65;100.00;98397.94;5034731;28;20068;-83
2022/12/08 05:31:28;;;;;;;19.25;10.80;;;;;;;2.51;100.00;98398.53;5049297;28;20041;-82
2022/12/08 05:34:15;;;;;;;17.48;11.15;;;;;;;2.49;100.00;98404.66;5051237;28;20509;-83
2022/12/08 05:37:00;;;;;;;17.58;10.55;;;;;;;2.44;100.00;98410.03;5064035;28;20047;-80
2022/12/08 05:39:45;;;;;;;15.52;10.13;;;;;;;2.55;100.00;98405.25;5064484;28;20049;-82
2022/12/08 05:42:30;;;;;;;18.77;10.32;;;;;;;2.48;100.00;98396.03;5063260;28;20041;-82
2022/12/08 05:45:14;;;;;;;13.32;8.93;;;;;;;2.35;100.00;98393.13;5048619;28;20159;-80
2022/12/08 05:47:59;;;;;;;14.98;10.20;;;;;;;2.47;100.00;98394.38;5063113;28;20039;-80
2022/12/08 05:50:47;;;;;;;15.82;10.27;;;;;;;2.40;100.00;98395.53;5063006;28;20108;-80
2022/12/08 05:53:31;;;;;;;14.38;9.88;;;;;;;2.28;100.00;98395.16;5058408;28;20057;-81
2022/12/08 05:56:17;;;;;;;18.27;10.15;;;;;;;2.13;100.00;98404.34;5061581;28;20961;-83
2022/12/08 05:59:05;;;;;;;18.05;10.43;;;;;;;2.12;100.00;98394.06;5062094;28;20048;-80
2022/12/08 06:01:50;;;;;;;14.45;9.60;;;;;;;2.00;100.00;98395.38;5065969;28;20078;-80
2022/12/08 06:04:35;;;;;;;11.43;7.97;;;;;;;2.26;100.00;98396.94;5059820;28;20048;-81
2022/12/08 06:07:20;;;;;;;12.43;8.38;;;;;;;2.41;100.00;98402.41;5063050;28;20049;-81
2022/12/08 06:10:06;;;;;;;16.55;10.05;;;;;;;2.26;100.00;98402.13;5048013;28;20559;-82
2022/12/08 06:12:51;;;;;;;15.10;9.70;;;;;;;2.21;100.00;98398.88;5063345;28;20111;-83
2022/12/08 06:15:37;;;;;;;17.65;9.35;;;;;;;2.52;100.00;98404.53;5066071;28;20043;-80
2022/12/08 06:18:21;;;;;;;14.75;8.85;;;;;;;2.46;100.00;98403.88;5062304;28;20474;-81
2022/12/08 06:21:09;;;;;;;15.80;8.15;;;;;;;2.39;100.00;98397.28;5062512;28;20490;-82
2022/12/08 06:23:55;;;;;;;17.60;9.02;;;;;;;2.41;100.00;98400.66;5064861;28;20370;-81
2022/12/08 06:26:40;;;;;;;16.45;10.60;;;;;;;2.43;100.00;98401.41;5067166;28;20156;-80
2022/12/08 06:29:25;;;;;;;17.45;10.63;;;;;;;2.38;100.00;98403.38;5067933;28;20056;-82
2022/12/08 06:32:10;;;;;;;16.38;9.63;;;;;;;2.41;100.00;98404.97;5072110;28;20054;-82
2022/12/08 06:34:57;;;;;;;15.27;8.98;;;;;;;2.50;100.00;98409.75;5060749;28;20493;-82
2022/12/08 06:37:41;;;;;;;16.58;10.23;;;;;;;2.55;100.00;98410.44;5069276;28;20635;-79
2022/12/08 06:40:27;;;;;;;23.10;10.68;;;;;;;3.05;100.00;98408.34;5067616;28;20040;-86
2022/12/08 06:43:12;;;;;;;18.45;9.77;;;;;;;2.93;100.00;98412.31;5070513;28;20041;-81
2022/12/08 06:45:56;;;;;;;20.75;9.70;;;;;;;3.25;100.00;98409.22;5054015;28;20040;-84
2022/12/08 06:48:43;;;;;;;19.17;10.27;;;;;;;2.98;100.00;98409.53;5067524;28;20410;-85
2022/12/08 06:51:28;;;;;;;17.63;10.55;;;;;;;3.02;100.00;98410.25;5038239;28;20041;-83
2022/12/08 06:54:13;;;;;;;16.30;10.57;;;;;;;2.63;100.00;98402.34;5051362;28;20105;-82
2022/12/08 06:56:58;;;;;;;15.93;9.85;;;;;;;2.79;100.00;98406.88;5066632;28;20032;-84
2022/12/08 06:59:43;;;;;;;17.27;10.55;;;;;;;2.66;100.00;98406.56;5067572;28;20119;-84
2022/12/08 07:02:28;;;;;;;16.63;10.23;;;;;;;2.77;100.00;98411.28;5070805;28;20043;-84
2022/12/08 07:05:12;;;;;;;16.00;9.45;;;;;;;2.70;100.00;98413.28;5067528;28;20036;-82
2022/12/08 07:07:57;;;;;;;19.15;10.25;;;;;;;2.55;100.00;98410.44;5070162;28;20036;-82
2022/12/08 07:10:42;;;;;;;19.63;9.77;;;;;;;2.54;100.00;98408.75;5068479;28;20116;-83
2022/12/08 07:13:28;;;;;;;15.57;9.93;;;;;;;2.74;100.00;98403.66;5075144;28;20044;-85
2022/12/08 07:16:16;;;;;;;17.02;9.95;;;;;;;2.61;100.00;98406.75;5058471;28;20063;-87
2022/12/08 07:19:04;;;;;;;19.73;11.63;;;;;;;2.47;100.00;98399.56;5070386;28;20505;-85
2022/12/08 07:21:49;;;;;;;18.17;10.45;;;;;;;2.48;100.00;98403.00;5068616;28;20127;-82
2022/12/08 07:24:35;;;;;;;16.02;10.45;;;;;;;2.61;100.00;98400.72;5066342;28;20501;-83
2022/12/08 07:27:24;;;;;;;17.50;10.40;;;;;;;2.67;100.00;98401.31;5056964;28;20052;-86
2022/12/08 07:30:10;;;;;;;17.15;9.70;;;;;;;2.78;100.00;98397.41;5045470;28;20045;-86
2022/12/08 07:32:58;;;;;;;15.70;10.20;;;;;;;2.68;100.00;98399.56;5060280;28;20040;-82
2022/12/08 07:35:43;;;;;;;18.05;11.05;;;;;;;2.47;100.00;98396.97;5068882;28;20162;-83
2022/12/08 07:38:29;;;;;;;19.17;10.63;;;;;;;2.50;100.00;98409.75;5072969;28;20037;-83
2022/12/08 07:41:21;;;;;;;17.17;10.15;;;;;;;2.60;100.00;98407.66;5071334;28;20056;-85
2022/12/08 07:44:08;;;;;;;15.80;10.23;;;;;;;2.45;100.00;98402.19;5072127;28;20044;-83
2022/12/08 07:46:53;;;;;;;14.90;8.98;;;;;;;2.71;100.00;98410.63;5054742;28;20044;-85
2022/12/08 07:49:38;;;;;;;14.95;9.52;;;;;;;2.55;100.00;98407.84;5064948;28;20043;-83
2022/12/08 07:52:24;;;;;;;15.45;9.63;;;;;;;2.50;100.00;98408.94;5081701;28;20544;-81
2022/12/08 07:55:09;;;;;;;20.00;12.07;;;;;;;2.59;100.00;98408.56;5044057;28;20045;-82
2022/12/08 07:57:55;;;;;;;14.57;10.35;;;;;;;2.52;100.00;98407.97;5075849;28;20040;-82
2022/12/08 08:00:40;;;;;;;16.00;10.10;;;;;;;2.43;100.00;98422.09;5076740;28;20096;-82
2022/12/08 08:03:25;;;;;;;15.43;10.13;;;;;;;2.74;100.00;98421.75;5059632;28;20052;-82
2022/12/08 08:06:09;;;;;;;14.70;9.25;;;;;;;2.71;100.00;98417.53;5038929;28;20083;-81
2022/12/08 08:08:54;;;;;;;16.48;9.65;;;;;;;2.73;100.00;98409.72;5064036;28;20154;-82
2022/12/08 08:11:39;;;;;;;16.23;9.75;;;;;;;2.89;100.00;98418.50;5046338;28;20051;-81
2022/12/08 08:14:24;;;;;;;15.77;9.88;;;;;;;2.83;100.00;98416.19;5060233;28;20037;-82
2022/12/08 08:17:09;;;;;;;13.68;9.45;;;;;;;2.66;100.00;98428.06;5075437;28;20044;-82
2022/12/08 08:19:53;;;;;;;15.38;10.25;;;;;;;2.69;100.00;98424.53;5058740;28;20124;-82
2022/12/08 08:22:39;;;;;;;16.65;10.02;;;;;;;2.75;100.00;98428.59;5076086;28;20036;-83
2022/12/08 08:25:23;;;;;;;16.77;10.00;;;;;;;2.69;100.00;98421.97;5073307;28;20550;-82
2022/12/08 08:28:08;;;;;;;15.07;10.27;;;;;;;2.88;100.00;98419.44;5073707;28;20048;-83
2022/12/08 08:30:53;;;;;;;15.48;9.63;;;;;;;3.08;100.00;98420.31;5070252;28;20041;-84
2022/12/08 08:33:37;;;;;;;13.65;9.50;;;;;;;3.14;100.00;98421.78;5057817;28;20128;-84
2022/12/08 08:36:23;;;;;;;13.55;9.07;;;;;;;3.08;100.00;98425.50;5070307;28;20173;-82
2022/12/08 08:39:09;;;;;;;12.93;8.50;;;;;;;3.11;100.00;98422.78;5042433;28;20051;-81
2022/12/08 08:41:53;;;;;;;13.25;8.48;;;;;;;3.07;100.00;98413.44;5059200;28;20386;-82
2022/12/08 08:44:38;;;;;;;15.60;9.98;;;;;;;3.12;100.00;98419.28;5073112;28;20037;-82
2022/12/08 08:47:24;;;;;;;15.73;9.80;;;;;;;3.22;100.00;98429.22;5060962;28;20067;-82
2022/12/08 08:50:09;;;;;;;13.48;9.65;;;;;;;3.05;100.00;98418.69;5068870;28;20059;-82
2022/12/08 08:52:55;;;;;;;15.57;9.57;;;;;;;2.95;100.00;98414.84;5044697;28;20471;-84
2022/12/08 08:55:51;;;;;;;13.63;9.13;;;;;;;2.86;100.00;98403.13;5041938;28;20048;-83
2022/12/08 08:58:37;;;;;;;17.30;10.38;;;;;;;2.86;100.00;98408.28;5070290;28;20050;-82
2022/12/08 09:01:24;;;;;;;13.55;9.05;;;;;;;2.68;100.00;98409.91;5054008;28;20101;-81
2022/12/08 09:04:09;;;;;;;15.52;9.85;;;;;;;2.85;100.00;98410.94;5072972;28;20037;-82
2022/12/08 09:06:55;;;;;;;17.00;10.02;;;;;;;2.95;100.00;98420.00;5054274;28;20093;-82
2022/12/08 09:09:40;;;;;;;16.52;10.35;;;;;;;2.92;100.00;98409.78;5059825;28;20066;-85
2022/12/08 09:12:24;;;;;;;13.82;9.23;;;;;;;3.01;100.00;98408.53;5074128;28;20128;-82
2022/12/08 09:15:10;;;;;;;16.15;11.00;;;;;;;3.07;100.00;98409.13;5042414;28;20104;-85
2022/12/08 09:17:55;;;;;;;16.08;10.50;;;;;;;2.71;100.00;98397.69;5019427;28;20455;-85
2022/12/08 09:20:39;;;;;;;18.60;10.77;;;;;;;2.58;100.00;98399.94;5054094;28;20054;-85
2022/12/08 09:23:26;;;;;;;15.55;10.57;;;;;;;2.59;100.00;98395.63;5064828;28;20045;-83
2022/12/08 09:26:12;;;;;;;16.90;10.63;;;;;;;2.70;100.00;98393.44;5053701;28;20171;-85
2022/12/08 09:28:57;;;;;;;17.25;10.88;;;;;;;2.93;100.00;98401.97;5051878;28;20115;-87
2022/12/08 09:31:44;;;;;;;17.30;10.68;;;;;;;2.86;100.00;98402.28;5063930;28;20040;-87
2022/12/08 09:34:30;;;;;;;17.50;11.30;;;;;;;2.95;100.00;98388.97;5060723;28;20040;-85
2022/12/08 09:37:16;;;;;;;17.13;10.88;;;;;;;2.92;100.00;98394.25;5064375;28;20493;-87
2022/12/08 09:40:05;;;;;;;16.40;9.48;;;;;;;3.08;100.00;98390.09;5051561;28;20063;-88
2022/12/08 09:43:21;;;;;;;17.20;10.23;;;;;;;3.15;100.00;98387.25;5048938;28;20037;-86
2022/12/08 09:46:10;;;;;;;18.25;11.80;;;;;;;3.10;100.00;98384.03;5047300;28;20082;-87
2022/12/08 09:48:58;;;;;;;16.90;10.57;;;;;;;3.13;100.00;98389.06;5037399;28;20036;-85
2022/12/08 09:51:44;;;;;;;15.18;10.32;;;;;;;3.04;100.00;98385.09;5038995;28;20497;-83
2022/12/08 09:54:35;;;;;;;14.85;9.98;;;;;;;3.23;100.00;98382.56;5062033;28;20052;-87
2022/12/08 09:57:23;;;;;;;16.33;10.32;;;;;;;3.45;100.00;98376.41;5064263;28;20041;-85
2022/12/08 10:00:12;;;;;;;16.02;10.80;;;;;;;3.54;100.00;98368.22;5037509;28;20135;-86
2022/12/08 10:02:58;;;;;;;18.75;11.63;;;;;;;3.23;100.00;98372.22;5063316;28;20063;-83
2022/12/08 10:05:57;;;;;;;18.13;12.63;;;;;;;3.24;100.00;98373.88;5073445;28;20036;-83
2022/12/08 10:09:21;;;;;;;18.33;11.98;;;;;;;3.02;100.00;98374.81;5070665;28;20048;-84
2022/12/08 10:12:36;;;;;;;18.70;11.80;;;;;;;3.26;100.00;98342.75;5043708;28;20079;-82
2022/12/08 10:15:51;;;;;;;17.15;11.65;;;;;;;2.92;100.00;98353.69;5048371;28;20135;-82
2022/12/08 10:18:36;;;;;;;18.73;11.45;;;;;;;3.06;100.00;98342.75;5064697;28;20046;-83
2022/12/08 10:21:27;;;;;;;19.33;13.15;;;;;;;2.89;100.00;98335.69;5039578;28;20119;-85
2022/12/08 10:24:23;;;;;;;21.20;13.10;;;;;;;2.79;100.00;98334.44;5053101;28;20044;-84
2022/12/08 10:27:11;;;;;;;17.95;11.95;;;;;;;2.82;100.00;98332.53;5067689;28;20048;-84
2022/12/08 10:29:56;;;;;;;17.13;11.23;;;;;;;2.87;100.00;98324.59;5059843;28;20428;-85
2022/12/08 10:32:44;;;;;;;15.13;10.00;;;;;;;3.04;100.00;98313.47;5062547;28;20143;-84
2022/12/08 10:36:03;;;;;;;15.98;11.02;;;;;;;3.33;100.00;98311.31;5068458;28;20509;-86
2022/12/08 10:38:48;;;;;;;16.48;11.00;;;;;;;3.22;100.00;98313.56;4939692;29;20110;-84
2022/12/08 10:41:36;;;;;;;17.45;10.63;;;;;;;2.98;100.00;98315.50;4949808;29;20054;-85
2022/12/08 10:44:21;;;;;;;18.80;11.77;;;;;;;2.90;100.00;98311.53;4936351;29;20051;-85
2022/12/08 10:47:12;;;;;;;16.13;10.52;;;;;;;2.90;100.00;98310.66;4948590;29;20206;-87
2022/12/08 10:50:20;;;;;;;16.92;11.55;;;;;;;3.02;100.00;98304.13;4935547;29;20050;-87
2022/12/08 10:53:07;;;;;;;15.82;10.18;;;;;;;3.30;100.00;98295.91;4943351;28;20057;-85
2022/12/08 10:56:02;;;;;;;17.65;10.27;;;;;;;2.98;100.00;98289.63;4956284;28;20546;-84
2022/12/08 10:58:47;;;;;;;18.40;11.52;;;;;;;2.89;100.00;98285.72;4965939;28;20070;-85
2022/12/08 11:01:36;;;;;;;16.73;10.95;;;;;;;2.94;100.00;98287.16;4969700;28;20159;-86
2022/12/08 11:04:35;;;;;;;18.02;10.95;;;;;;;2.90;100.00;98280.47;4928400;28;20114;-84
2022/12/08 11:07:21;;;;;;;17.10;11.70;;;;;;;2.91;100.00;98273.53;4970067;28;20516;-85
2022/12/08 11:10:19;;;;;;;12.88;8.55;;;;;;;3.13;100.00;98268.22;4956748;28;20053;-86
2022/12/08 11:13:22;;;;;;;16.20;9.82;;;;;;;3.28;100.00;98271.03;4948977;28;20046;-88
2022/12/08 11:16:15;;;;;;;15.20;9.68;;;;;;;3.23;100.00;98260.88;5081003;28;20060;-88
2022/12/08 11:19:06;;;;;;;18.27;10.90;;;;;;;3.03;100.00;98259.19;5068554;28;20120;-86
2022/12/08 11:21:52;;;;;;;16.08;10.93;;;;;;;3.17;100.00;98259.41;5068781;28;20516;-85
2022/12/08 11:24:37;;;;;;;21.02;10.55;;;;;;;3.17;100.00;98255.97;5066904;28;20040;-85
2022/12/08 11:27:23;;;;;;;16.50;10.88;;;;;;;3.14;100.00;98253.53;5070311;28;20037;-87
2022/12/08 11:30:17;;;;;;;16.83;10.93;;;;;;;2.91;100.00;98258.00;5039877;28;20067;-87
2022/12/08 11:33:25;;;;;;;16.95;10.02;;;;;;;2.90;100.00;98243.38;5079972;28;20032;-87
2022/12/08 11:36:14;;;;;;;16.13;10.10;;;;;;;2.95;100.00;98244.03;5064464;28;20070;-87
2022/12/08 11:39:02;;;;;;;15.35;10.15;;;;;;;2.78;100.00;98240.44;5071374;28;20061;-87
2022/12/08 11:41:50;;;;;;;16.92;10.63;;;;;;;2.74;100.00;98236.34;5065714;28;20051;-88
2022/12/08 11:44:43;;;;;;;15.70;10.00;;;;;;;2.75;100.00;98227.66;5063384;28;20564;-87
2022/12/08 11:48:00;;;;;;;14.75;9.77;;;;;;;2.85;100.00;98220.31;5065579;28;20028;-86
2022/12/08 11:51:01;;;;;;;14.82;9.68;;;;;;;2.92;100.00;98216.53;5053910;28;20040;-90
2022/12/08 11:54:01;;;;;;;16.00;9.45;;;;;;;3.11;100.00;98217.41;5083085;28;20052;-85
2022/12/08 11:56:53;;;;;;;15.52;10.25;;;;;;;3.03;100.00;98225.56;5055604;28;20041;-86
2022/12/08 11:59:45;;;;;;;16.05;10.18;;;;;;;3.06;100.00;98218.50;5079224;28;20062;-83
2022/12/08 12:02:34;;;;;;;14.38;9.88;;;;;;;2.71;100.00;98226.94;5067639;28;20033;-84
2022/12/08 12:05:32;;;;;;;17.10;9.80;;;;;;;2.80;100.00;98211.91;5068711;28;20074;-83
2022/12/08 12:08:48;;;;;;;16.02;10.82;;;;;;;2.84;100.00;98213.44;5054900;28;20566;-82
2022/12/08 12:15:17;;;;;;;15.45;10.40;;;;;;;2.90;100.00;98214.94;5065173;28;20398;-83
2022/12/08 12:18:08;;;;;;;13.43;9.85;;;;;;;2.62;100.00;98206.66;5079966;28;20037;-84
2022/12/08 12:21:15;;;;;;;17.17;10.32;;;;;;;2.71;100.00;98197.63;5072124;28;20032;-85
2022/12/08 12:24:05;;;;;;;16.02;10.25;;;;;;;2.66;100.00;98192.66;5067831;28;20043;-83
2022/12/08 12:27:13;;;;;;;16.30;10.15;;;;;;;2.66;100.00;98191.84;5076728;28;20461;-81
2022/12/08 12:30:01;;;;;;;14.95;9.30;;;;;;;2.86;100.00;98195.28;5076723;28;20032;-84
2022/12/08 12:32:58;;;;;;;17.40;10.10;;;;;;;2.87;100.00;98190.03;5077147;28;20036;-80
2022/12/08 12:35:46;;;;;;;16.10;10.38;;;;;;;2.56;100.00;98188.84;5081275;28;20230;-83
2022/12/08 12:39:00;;;;;;;18.23;10.60;;;;;;;2.56;100.00;98186.25;5065090;28;20036;-84
2022/12/08 12:41:47;;;;;;;17.35;10.30;;;;;;;2.62;100.00;98182.53;5068626;28;20550;-83
2022/12/08 12:44:31;;;;;;;18.10;11.43;;;;;;;2.61;100.00;98183.47;5063942;28;20033;-83
2022/12/08 12:47:49;;;;;;;15.10;8.70;;;;;;;2.73;100.00;98190.66;5064155;28;20441;-85
2022/12/08 12:50:42;;;;;;;16.20;10.77;;;;;;;2.64;100.00;98184.16;5066581;28;20102;-84
2022/12/08 12:53:27;;;;;;;16.33;10.13;;;;;;;2.53;100.00;98181.22;5066771;28;20063;-83
2022/12/08 12:56:48;;;;;;;20.00;10.35;;;;;;;2.38;100.00;98186.16;5066857;28;20048;-87
2022/12/08 12:59:43;;;;;;;16.77;10.95;;;;;;;2.44;100.00;98177.28;5065359;28;20102;-85
2022/12/08 13:02:42;;;;;;;18.83;10.75;;;;;;;2.48;100.00;98172.81;5066512;28;20049;-87
2022/12/08 13:05:30;;;;;;;18.90;9.68;;;;;;;2.72;100.00;98176.06;5063849;28;20045;-87
2022/12/08 13:08:24;;;;;;;15.95;9.40;;;;;;;2.90;100.00;98176.97;5034289;28;20075;-86
2022/12/08 13:11:10;;;;;;;14.52;8.82;;;;;;;2.89;100.00;98179.63;5059264;28;20048;-87
2022/12/08 13:14:02;;;;;;;16.00;9.73;;;;;;;3.05;100.00;98175.38;5077756;28;20044;-86
2022/12/08 13:16:53;;;;;;;18.23;10.68;;;;;;;2.97;100.00;98169.72;5061883;28;20040;-86
2022/12/08 13:19:40;;;;;;;16.58;10.70;;;;;;;2.76;100.00;98169.81;5035520;28;20045;-86
2022/12/08 13:22:49;;;;;;;16.20;9.88;;;;;;;2.90;100.00;98170.94;5061531;28;20040;-86